createdAt,value
2018-01-12T00:00:23.416Z,73.62
2018-01-12T00:01:25.881Z,91.10
2018-01-12T00:02:28.342Z,78.60
2018-01-12T00:03:30.848Z,82.43
2018-01-12T00:04:33.342Z,83.37
2018-01-12T00:05:35.837Z,86.80
2018-01-12T00:06:38.302Z,70.32
2018-01-12T00:07:40.780Z,84.62
2018-01-12T00:08:43.275Z,77.78
2018-01-12T00:09:45.752Z,78.87
2018-01-12T00:10:48.214Z,81.95
2018-01-12T00:11:50.671Z,69.68
2018-01-12T00:12:53.148Z,78.22
2018-01-12T00:13:55.626Z,86.43
2018-01-12T00:14:58.113Z,83.53
2018-01-12T00:16:00.583Z,80.25
2018-01-12T00:17:03.050Z,74.00
2018-01-12T00:18:05.510Z,82.80
2018-01-12T00:19:07.991Z,71.35
2018-01-12T00:20:10.464Z,80.03
2018-01-12T00:21:12.940Z,91.85
2018-01-12T00:22:15.420Z,78.28
2018-01-12T00:23:17.900Z,74.28
2018-01-12T00:24:20.390Z,85.95
2018-01-12T00:25:22.859Z,81.40
2018-01-12T00:26:25.340Z,81.12
2018-01-12T00:27:27.807Z,75.28
2018-01-12T00:28:30.289Z,67.60
2018-01-12T00:29:32.788Z,76.97
2018-01-12T00:30:35.266Z,72.45
2018-01-12T00:31:37.723Z,76.15
2018-01-12T00:32:40.185Z,78.68
2018-01-12T00:33:42.671Z,83.05
2018-01-12T00:34:45.168Z,72.25
2018-01-12T00:35:47.629Z,72.80
2018-01-12T00:36:50.086Z,71.90
2018-01-12T00:37:52.568Z,83.37
2018-01-12T00:38:55.030Z,75.55
2018-01-12T00:39:57.540Z,77.10
2018-01-12T00:41:00.026Z,90.18
2018-01-12T00:42:02.489Z,75.32
2018-01-12T00:43:05.012Z,89.35
2018-01-12T00:44:07.474Z,79.65
2018-01-12T00:45:09.977Z,90.15
2018-01-12T00:46:12.451Z,90.07
2018-01-12T00:47:14.928Z,81.95
2018-01-12T00:48:17.394Z,85.95
2018-01-12T00:49:19.858Z,84.87
2018-01-12T00:50:22.338Z,79.28
2018-01-12T00:51:24.816Z,80.93
2018-01-12T00:52:27.292Z,76.20
2018-01-12T00:53:29.776Z,72.10
2018-01-12T00:54:32.238Z,72.78
2018-01-12T00:55:34.718Z,75.80
2018-01-12T00:56:37.187Z,79.30
2018-01-12T00:57:39.660Z,78.37
2018-01-12T00:58:42.134Z,81.90
2018-01-12T00:59:44.608Z,76.40
2018-01-12T01:00:47.105Z,74.28
2018-01-12T01:01:49.588Z,79.75
2018-01-12T01:02:52.058Z,79.72
2018-01-12T01:03:54.522Z,84.80
2018-01-12T01:04:57.005Z,79.70
2018-01-12T01:05:59.506Z,84.18
2018-01-12T01:07:01.974Z,80.53
2018-01-12T01:08:04.434Z,74.25
2018-01-12T01:09:06.990Z,74.00
2018-01-12T01:10:09.426Z,74.78
2018-01-12T01:11:11.902Z,67.75
2018-01-12T01:12:14.366Z,74.60
2018-01-12T01:13:16.830Z,68.40
2018-01-12T01:14:19.294Z,70.30
2018-01-12T01:15:21.768Z,83.53
2018-01-12T01:16:24.250Z,70.78
2018-01-12T01:17:26.714Z,76.62
2018-01-12T01:18:29.177Z,80.87
2018-01-12T01:19:31.760Z,87.03
2018-01-12T01:20:34.260Z,81.12
2018-01-12T01:21:36.753Z,79.68
2018-01-12T01:22:39.218Z,79.10
2018-01-12T01:23:41.697Z,83.75
2018-01-12T01:24:44.154Z,78.45
2018-01-12T01:25:46.636Z,72.50
2018-01-12T01:26:49.144Z,70.78
2018-01-12T01:27:51.621Z,73.80
2018-01-12T01:28:54.129Z,74.20
2018-01-12T01:29:56.602Z,79.12
2018-01-12T01:30:59.079Z,75.28
2018-01-12T01:32:01.576Z,81.75
2018-01-12T01:33:04.033Z,74.93
2018-01-12T01:34:06.493Z,86.15
2018-01-12T01:35:08.958Z,81.53
2018-01-12T01:36:11.432Z,69.95
2018-01-12T01:37:13.926Z,72.62
2018-01-12T01:38:16.386Z,83.80
2018-01-12T01:39:18.862Z,74.00
2018-01-12T01:40:21.326Z,81.28
2018-01-12T01:41:23.782Z,74.37
2018-01-12T01:42:26.282Z,69.80
2018-01-12T01:43:28.769Z,71.90
2018-01-12T01:44:31.225Z,90.75
2018-01-12T01:45:33.704Z,80.18
2018-01-12T01:46:36.165Z,78.30
2018-01-12T01:47:38.669Z,72.85
2018-01-12T01:48:41.933Z,85.03
2018-01-12T01:49:44.408Z,92.75
2018-01-12T01:50:46.893Z,82.93
2018-01-12T01:51:49.359Z,91.37
2018-01-12T01:52:51.856Z,86.93
2018-01-12T01:53:54.336Z,87.07
2018-01-12T01:54:56.815Z,95.68
2018-01-12T01:55:59.296Z,93.45
2018-01-12T01:57:01.778Z,77.55
2018-01-12T01:58:04.254Z,93.87
2018-01-12T01:59:06.722Z,110.28
2018-01-12T02:00:09.239Z,96.37
2018-01-12T02:01:11.701Z,99.40
2018-01-12T02:02:14.204Z,98.40
2018-01-12T02:03:16.683Z,102.57
2018-01-12T02:04:19.159Z,100.12
2018-01-12T02:05:21.634Z,100.78
2018-01-12T02:06:24.099Z,93.00
2018-01-12T02:07:26.558Z,98.80
2018-01-12T02:08:29.056Z,91.32
2018-01-12T02:09:31.544Z,101.53
2018-01-12T02:10:34.026Z,94.22
2018-01-12T02:11:36.490Z,97.90
2018-01-12T02:12:38.959Z,102.32
2018-01-12T02:13:41.464Z,99.40
2018-01-12T02:14:43.936Z,94.95
2018-01-12T02:15:46.420Z,110.25
2018-01-12T02:16:48.900Z,97.40
2018-01-12T02:17:51.380Z,100.80
2018-01-12T02:18:53.912Z,101.62
2018-01-12T02:19:56.374Z,100.00
2018-01-12T02:20:58.834Z,98.75
2018-01-12T02:22:01.298Z,105.30
2018-01-12T02:23:03.766Z,95.55
2018-01-12T02:24:06.260Z,97.80
2018-01-12T02:25:08.730Z,94.53
2018-01-12T02:26:11.208Z,105.82
2018-01-12T02:27:13.686Z,112.57
2018-01-12T02:28:16.168Z,106.25
2018-01-12T02:29:18.651Z,101.62
2018-01-12T02:30:21.126Z,117.97
2018-01-12T02:31:23.598Z,105.28
2018-01-12T02:32:26.085Z,119.35
2018-01-12T02:33:28.564Z,112.47
2018-01-12T02:34:31.054Z,119.65
2018-01-12T02:35:33.519Z,114.65
2018-01-12T02:36:35.981Z,105.57
2018-01-12T02:37:38.461Z,114.32
2018-01-12T02:38:40.927Z,101.28
2018-01-12T02:39:43.402Z,96.28
2018-01-12T02:40:45.870Z,100.82
2018-01-12T02:41:48.352Z,88.18
2018-01-12T02:42:50.813Z,94.65
2018-01-12T02:43:53.302Z,102.70
2018-01-12T02:44:55.832Z,98.53
2018-01-12T02:45:58.297Z,95.43
2018-01-12T02:47:00.780Z,98.97
2018-01-12T02:48:03.255Z,103.90
2018-01-12T02:49:05.765Z,96.22
2018-01-12T02:50:08.267Z,96.75
2018-01-12T02:51:10.740Z,95.47
2018-01-12T02:52:13.220Z,101.07
2018-01-12T02:53:15.683Z,97.05
2018-01-12T02:54:18.165Z,102.57
2018-01-12T02:55:20.674Z,102.45
2018-01-12T02:56:23.156Z,106.15
2018-01-12T02:57:25.637Z,100.85
2018-01-12T02:58:28.106Z,97.80
2018-01-12T02:59:30.593Z,103.55
2018-01-12T03:00:33.135Z,96.18
2018-01-12T03:01:35.603Z,100.10
2018-01-12T03:02:38.084Z,130.70
2018-01-12T03:03:40.560Z,99.43
2018-01-12T03:04:43.045Z,111.47
2018-01-12T03:05:45.548Z,102.45
2018-01-12T03:06:48.025Z,96.10
2018-01-12T03:07:50.512Z,101.40
2018-01-12T03:08:52.969Z,99.10
2018-01-12T03:09:55.430Z,97.12
2018-01-12T03:10:57.924Z,106.15
2018-01-12T03:12:00.420Z,108.57
2018-01-12T03:13:02.909Z,101.45
2018-01-12T03:14:05.373Z,105.18
2018-01-12T03:15:07.838Z,97.18
2018-01-12T03:16:10.326Z,99.93
2018-01-12T03:17:12.808Z,107.40
2018-01-12T03:18:15.273Z,97.72
2018-01-12T03:19:17.756Z,102.97
2018-01-12T03:20:20.236Z,100.82
2018-01-12T03:21:22.725Z,105.00
2018-01-12T03:22:25.208Z,112.60
2018-01-12T03:23:27.693Z,107.10
2018-01-12T03:24:30.172Z,98.87
2018-01-12T03:25:32.635Z,97.50
2018-01-12T03:26:35.139Z,108.90
2018-01-12T03:27:37.619Z,95.70
2018-01-12T03:28:40.096Z,110.45
2018-01-12T03:29:42.562Z,97.53
2018-01-12T03:30:45.033Z,102.03
2018-01-12T03:31:47.534Z,98.78
2018-01-12T03:32:50.010Z,100.12
2018-01-12T03:33:52.490Z,100.57
2018-01-12T03:34:54.958Z,105.50
2018-01-12T03:35:57.448Z,106.07
2018-01-12T03:36:59.934Z,113.37
2018-01-12T03:38:02.419Z,116.72
2018-01-12T03:39:04.900Z,100.60
2018-01-12T03:40:07.388Z,112.15
2018-01-12T03:41:09.853Z,102.85
2018-01-12T03:42:12.355Z,98.28
2018-01-12T03:43:14.876Z,99.90
2018-01-12T03:44:17.339Z,92.68
2018-01-12T03:45:19.820Z,102.80
2018-01-12T03:46:22.287Z,111.90
2018-01-12T03:47:24.774Z,96.28
2018-01-12T03:48:27.253Z,82.62
2018-01-12T03:49:29.736Z,92.12
2018-01-12T03:50:32.216Z,81.35
2018-01-12T03:51:34.703Z,93.55
2018-01-12T03:52:37.190Z,87.90
2018-01-12T03:53:39.650Z,92.43
2018-01-12T03:54:42.117Z,97.00
2018-01-12T03:55:44.601Z,106.55
2018-01-12T03:56:47.092Z,101.80
2018-01-12T03:57:49.570Z,98.93
2018-01-12T03:58:52.049Z,93.82
2018-01-12T03:59:54.537Z,102.78
2018-01-12T04:00:57.041Z,100.85
2018-01-12T04:01:59.506Z,92.05
2018-01-12T04:03:02.050Z,109.37
2018-01-12T04:04:04.528Z,92.60
2018-01-12T04:05:06.985Z,104.40
2018-01-12T04:06:09.466Z,106.18
2018-01-12T04:07:11.950Z,97.03
2018-01-12T04:08:14.430Z,99.18
2018-01-12T04:09:16.899Z,105.35
2018-01-12T04:10:19.364Z,93.68
2018-01-12T04:11:21.846Z,94.57
2018-01-12T04:12:24.308Z,92.88
2018-01-12T04:13:26.840Z,103.30
2018-01-12T04:14:29.306Z,97.53
2018-01-12T04:15:31.800Z,101.90
2018-01-12T04:16:34.262Z,99.25
2018-01-12T04:17:36.725Z,90.82
2018-01-12T04:18:39.230Z,90.62
2018-01-12T04:19:41.720Z,84.07
2018-01-12T04:20:44.200Z,91.28
2018-01-12T04:21:46.675Z,92.15
2018-01-12T04:22:49.142Z,101.03
2018-01-12T04:23:51.630Z,90.15
2018-01-12T04:24:54.174Z,95.78
2018-01-12T04:25:56.724Z,99.68
2018-01-12T04:26:59.182Z,94.72
2018-01-12T04:28:01.664Z,100.35
2018-01-12T04:29:04.150Z,96.40
2018-01-12T04:30:06.624Z,95.65
2018-01-12T04:31:09.101Z,93.75
2018-01-12T04:32:11.566Z,100.25
2018-01-12T04:33:14.038Z,99.95
2018-01-12T04:34:16.537Z,103.12
2018-01-12T04:35:19.028Z,103.05
2018-01-12T04:36:21.505Z,105.85
2018-01-12T04:37:23.982Z,96.87
2018-01-12T04:38:26.452Z,109.72
2018-01-12T04:39:28.952Z,111.25
2018-01-12T04:40:31.413Z,108.60
2018-01-12T04:41:33.887Z,116.53
2018-01-12T04:42:36.350Z,111.03
2018-01-12T04:43:38.827Z,115.90
2018-01-12T04:44:41.328Z,120.60
2018-01-12T04:45:43.813Z,127.60
2018-01-12T04:46:46.282Z,118.15
2018-01-12T04:47:48.774Z,108.40
2018-01-12T04:48:51.252Z,109.35
2018-01-12T04:49:53.750Z,109.95
2018-01-12T04:50:56.210Z,107.70
2018-01-12T04:51:58.688Z,103.07
2018-01-12T04:53:01.160Z,100.47
2018-01-12T04:54:03.626Z,108.03
2018-01-12T04:55:06.110Z,103.25
2018-01-12T04:56:08.583Z,110.47
2018-01-12T04:57:11.068Z,95.45
2018-01-12T04:58:13.556Z,112.07
2018-01-12T04:59:16.018Z,110.45
2018-01-12T05:00:18.510Z,104.57
2018-01-12T05:01:20.988Z,99.18
2018-01-12T05:02:23.472Z,97.78
2018-01-12T05:03:25.961Z,102.25
2018-01-12T05:04:28.434Z,107.47
2018-01-12T05:05:30.930Z,100.80
2018-01-12T05:06:33.485Z,110.40
2018-01-12T05:07:35.951Z,103.28
2018-01-12T05:08:38.436Z,93.05
2018-01-12T05:09:40.910Z,101.82
2018-01-12T05:10:43.399Z,108.60
2018-01-12T05:11:45.877Z,99.30
2018-01-12T05:12:48.339Z,98.78
2018-01-12T05:13:50.824Z,114.70
2018-01-12T05:14:53.294Z,116.25
2018-01-12T05:15:55.805Z,110.07
2018-01-12T05:16:58.284Z,95.32
2018-01-12T05:18:00.746Z,99.15
2018-01-12T05:19:03.230Z,114.78
2018-01-12T05:20:05.702Z,114.20
2018-01-12T05:21:08.196Z,100.45
2018-01-12T05:22:10.663Z,103.87
2018-01-12T05:23:13.187Z,93.80
2018-01-12T05:24:15.671Z,110.55
2018-01-12T05:25:18.161Z,110.65
2018-01-12T05:26:20.681Z,112.90
2018-01-12T05:27:23.160Z,112.30
2018-01-12T05:28:25.632Z,112.03
2018-01-12T05:29:28.185Z,119.60
2018-01-12T05:30:30.650Z,116.00
2018-01-12T05:31:33.139Z,121.55
2018-01-12T05:32:35.620Z,111.70
2018-01-12T05:33:38.100Z,114.25
2018-01-12T05:34:40.588Z,128.35
2018-01-12T05:35:43.068Z,136.80
2018-01-12T05:36:45.577Z,130.07
2018-01-12T05:37:48.050Z,136.30
2018-01-12T05:38:50.517Z,131.23
2018-01-12T05:39:53.020Z,137.20
2018-01-12T05:40:55.487Z,133.45
2018-01-12T05:41:57.998Z,134.12
2018-01-12T05:43:00.476Z,146.05
2018-01-12T05:44:02.942Z,140.25
2018-01-12T05:45:05.421Z,159.15
2018-01-12T05:46:07.900Z,161.18
2018-01-12T05:47:10.400Z,157.25
2018-01-12T05:48:12.883Z,169.75
2018-01-12T05:49:15.364Z,183.27
2018-01-12T05:50:17.826Z,169.00
2018-01-12T05:51:20.297Z,169.90
2018-01-12T05:52:22.802Z,177.07
2018-01-12T05:53:25.290Z,161.77
2018-01-12T05:54:27.780Z,150.73
2018-01-12T05:55:30.258Z,163.07
2018-01-12T05:56:32.744Z,163.82
2018-01-12T05:57:35.245Z,158.37
2018-01-12T05:58:37.718Z,171.05
2018-01-12T05:59:40.241Z,163.10
2018-01-12T06:00:54.686Z,161.90
2018-01-12T06:02:08.764Z,169.70
2018-01-12T06:03:22.958Z,163.87
2018-01-12T06:04:37.186Z,165.05
2018-01-12T06:05:51.352Z,152.25
2018-01-12T06:06:53.856Z,154.45
2018-01-12T06:07:56.317Z,149.68
2018-01-12T06:08:58.820Z,172.60
2018-01-12T06:10:01.294Z,155.77
2018-01-12T06:11:03.758Z,147.00
2018-01-12T06:12:06.241Z,144.18
2018-01-12T06:13:08.758Z,148.18
2018-01-12T06:14:11.248Z,139.25
2018-01-12T06:15:13.724Z,149.70
2018-01-12T06:16:16.191Z,126.72
2018-01-12T06:17:18.672Z,131.95
2018-01-12T06:18:21.134Z,131.30
2018-01-12T06:19:23.618Z,123.62
2018-01-12T06:20:26.082Z,136.65
2018-01-12T06:21:28.546Z,137.73
2018-01-12T06:22:31.010Z,129.30
2018-01-12T06:23:33.474Z,135.50
2018-01-12T06:24:35.977Z,135.05
2018-01-12T06:25:38.438Z,132.75
2018-01-12T06:26:40.920Z,115.43
2018-01-12T06:27:43.397Z,119.65
2018-01-12T06:28:45.876Z,135.95
2018-01-12T06:29:48.363Z,145.65
2018-01-12T06:30:50.826Z,153.05
2018-01-12T06:31:53.298Z,139.95
2018-01-12T06:32:55.824Z,123.78
2018-01-12T06:33:58.290Z,140.37
2018-01-12T06:35:00.784Z,137.12
2018-01-12T06:36:03.246Z,131.77
2018-01-12T06:37:05.734Z,124.18
2018-01-12T06:38:08.724Z,134.98
2018-01-12T06:39:11.206Z,123.68
2018-01-12T06:40:13.704Z,129.15
2018-01-12T06:41:16.170Z,137.68
2018-01-12T06:42:18.670Z,125.28
2018-01-12T06:43:21.148Z,138.85
2018-01-12T06:44:23.614Z,132.23
2018-01-12T06:45:26.098Z,139.30
2018-01-12T06:46:28.564Z,137.57
2018-01-12T06:47:31.045Z,138.90
2018-01-12T06:48:33.524Z,141.30
2018-01-12T06:49:36.061Z,123.70
2018-01-12T06:50:38.701Z,123.75
2018-01-12T06:51:41.178Z,115.60
2018-01-12T06:52:43.656Z,135.43
2018-01-12T06:53:46.132Z,130.00
2018-01-12T06:54:48.608Z,132.37
2018-01-12T06:55:51.128Z,130.90
2018-01-12T06:56:53.601Z,142.30
2018-01-12T06:57:56.145Z,128.15
2018-01-12T06:58:58.610Z,143.27
2018-01-12T07:00:01.092Z,131.55
2018-01-12T07:01:03.585Z,120.72
2018-01-12T07:02:06.052Z,156.18
2018-01-12T07:03:08.526Z,128.93
2018-01-12T07:04:11.004Z,129.02
2018-01-12T07:05:13.480Z,137.77
2018-01-12T07:06:16.014Z,124.05
2018-01-12T07:07:18.476Z,131.85
2018-01-12T07:08:20.951Z,133.82
2018-01-12T07:09:23.413Z,127.38
2018-01-12T07:10:25.878Z,137.98
2018-01-12T07:11:28.396Z,133.95
2018-01-12T07:12:30.858Z,132.23
2018-01-12T07:13:33.319Z,141.37
2018-01-12T07:14:35.830Z,133.82
2018-01-12T07:15:38.295Z,145.32
2018-01-12T07:16:40.813Z,143.90
2018-01-12T07:17:43.295Z,160.82
2018-01-12T07:18:45.759Z,159.77
2018-01-12T07:19:48.230Z,160.45
2018-01-12T07:21:02.620Z,152.98
2018-01-12T07:22:16.907Z,174.32
2018-01-12T07:23:31.421Z,167.62
2018-01-12T07:24:33.888Z,141.35
2018-01-12T07:25:36.356Z,149.85
2018-01-12T07:26:38.838Z,136.52
2018-01-12T07:27:41.355Z,139.88
2018-01-12T07:28:43.832Z,152.25
2018-01-12T07:29:46.298Z,151.43
2018-01-12T07:30:48.780Z,139.35
2018-01-12T07:31:51.255Z,134.70
2018-01-12T07:32:53.746Z,143.10
2018-01-12T07:33:56.236Z,149.73
2018-01-12T07:34:58.723Z,157.32
2018-01-12T07:36:01.186Z,164.00
2018-01-12T07:37:03.665Z,156.82
2018-01-12T07:38:06.177Z,162.50
2018-01-12T07:39:08.652Z,160.48
2018-01-12T07:40:11.140Z,172.02
2018-01-12T07:41:13.623Z,163.32
2018-01-12T07:42:16.090Z,183.07
2018-01-12T07:43:18.583Z,174.07
2018-01-12T07:44:21.085Z,159.18
2018-01-12T07:45:23.572Z,167.43
2018-01-12T07:46:26.034Z,169.68
2018-01-12T07:47:28.536Z,173.40
2018-01-12T07:48:31.036Z,159.23
2018-01-12T07:49:33.850Z,144.05
2018-01-12T07:50:36.350Z,164.75
2018-01-12T07:51:38.827Z,168.37
2018-01-12T07:52:46.974Z,169.80
2018-01-12T07:53:49.476Z,158.87
2018-01-12T07:54:51.950Z,163.93
2018-01-12T07:55:54.426Z,180.60
2018-01-12T07:56:56.925Z,166.30
2018-01-12T07:57:59.398Z,169.73
2018-01-12T07:59:01.894Z,172.73
2018-01-12T08:00:04.364Z,167.52
2018-01-12T08:01:12.450Z,172.77
2018-01-12T08:02:20.544Z,181.50
2018-01-12T08:03:23.024Z,197.40
2018-01-12T08:04:25.524Z,197.32
2018-01-12T08:05:28.004Z,182.90
2018-01-12T08:06:30.503Z,191.48
2018-01-12T08:07:32.980Z,172.30
2018-01-12T08:08:35.460Z,185.23
2018-01-12T08:09:37.942Z,183.35
2018-01-12T08:10:40.415Z,172.00
2018-01-12T08:11:42.874Z,191.30
2018-01-12T08:12:45.351Z,186.82
2018-01-12T08:13:47.820Z,193.35
2018-01-12T08:14:50.306Z,182.12
2018-01-12T08:15:52.770Z,179.60
2018-01-12T08:16:55.298Z,176.85
2018-01-12T08:17:57.794Z,200.15
2018-01-12T08:19:00.273Z,183.75
2018-01-12T08:20:02.773Z,180.02
2018-01-12T08:21:05.248Z,189.60
2018-01-12T08:22:07.706Z,176.60
2018-01-12T08:23:10.167Z,178.50
2018-01-12T08:24:12.648Z,193.80
2018-01-12T08:25:15.125Z,189.90
2018-01-12T08:26:17.588Z,204.52
2018-01-12T08:27:20.050Z,206.25
2018-01-12T08:28:22.513Z,208.63
2018-01-12T08:29:25.032Z,230.57
2018-01-12T08:30:27.513Z,217.32
2018-01-12T08:31:29.987Z,204.45
2018-01-12T08:32:32.465Z,206.93
2018-01-12T08:33:34.944Z,210.10
2018-01-12T08:34:37.426Z,202.65
2018-01-12T08:35:39.915Z,206.50
2018-01-12T08:36:42.388Z,239.32
2018-01-12T08:37:44.901Z,233.70
2018-01-12T08:38:47.394Z,211.20
2018-01-12T08:39:49.880Z,195.07
2018-01-12T08:40:52.361Z,200.93
2018-01-12T08:41:54.846Z,214.98
2018-01-12T08:42:57.321Z,222.12
2018-01-12T08:43:59.788Z,218.68
2018-01-12T08:45:02.249Z,238.10
2018-01-12T08:46:04.725Z,228.90
2018-01-12T08:47:07.292Z,254.00
2018-01-12T08:48:09.768Z,207.60
2018-01-12T08:49:12.254Z,211.43
2018-01-12T08:50:14.752Z,203.68
2018-01-12T08:51:17.240Z,211.30
2018-01-12T08:52:19.716Z,197.60
2018-01-12T08:53:22.204Z,198.05
2018-01-12T08:54:24.687Z,188.35
2018-01-12T08:55:27.169Z,193.82
2018-01-12T08:56:29.658Z,199.07
2018-01-12T08:57:32.145Z,200.98
2018-01-12T08:58:34.628Z,216.15
2018-01-12T08:59:37.110Z,193.85
2018-01-12T09:00:39.574Z,204.00
2018-01-12T09:01:42.070Z,213.00
2018-01-12T09:02:44.602Z,197.68
2018-01-12T09:03:47.070Z,199.73
2018-01-12T09:04:49.531Z,200.10
2018-01-12T09:05:52.007Z,204.70
2018-01-12T09:06:54.596Z,188.82
2018-01-12T09:07:57.064Z,197.35
2018-01-12T09:08:59.540Z,211.07
2018-01-12T09:10:02.022Z,209.35
2018-01-12T09:11:04.487Z,213.32
2018-01-12T09:12:06.971Z,204.90
2018-01-12T09:13:21.219Z,197.75
2018-01-12T09:14:35.391Z,191.68
2018-01-12T09:15:37.858Z,206.45
2018-01-12T09:16:40.398Z,207.57
2018-01-12T09:17:48.766Z,227.02
2018-01-12T09:19:03.105Z,227.32
2018-01-12T09:20:16.290Z,210.45
2018-01-12T09:21:25.225Z,198.57
2018-01-12T09:22:28.457Z,192.10
2018-01-12T09:23:32.060Z,201.98
2018-01-12T09:24:34.526Z,209.55
2018-01-12T09:25:37.403Z,225.00
2018-01-12T09:26:39.866Z,222.90
2018-01-12T09:27:42.329Z,206.55
2018-01-12T09:28:44.819Z,203.68
2018-01-12T09:29:47.286Z,211.57
2018-01-12T09:30:49.809Z,216.02
2018-01-12T09:31:52.264Z,216.50
2018-01-12T09:32:54.756Z,195.00
2018-01-12T09:33:57.214Z,197.48
2018-01-12T09:35:00.663Z,190.25
2018-01-12T09:36:03.149Z,205.50
2018-01-12T09:37:05.611Z,200.05
2018-01-12T09:38:20.003Z,211.43
2018-01-12T09:39:34.149Z,204.70
2018-01-12T09:40:47.814Z,205.15
2018-01-12T09:41:50.281Z,222.93
2018-01-12T09:42:52.741Z,190.35
2018-01-12T09:43:55.218Z,227.68
2018-01-12T09:44:57.703Z,206.87
2018-01-12T09:46:00.213Z,213.55
2018-01-12T09:47:14.617Z,201.52
2018-01-12T09:48:37.978Z,209.98
2018-01-12T09:49:50.315Z,188.60
2018-01-12T09:50:52.778Z,210.70
2018-01-12T09:51:55.238Z,188.52
2018-01-12T09:52:57.722Z,188.95
2018-01-12T09:54:00.209Z,203.52
2018-01-12T09:55:02.696Z,201.68
2018-01-12T09:56:05.208Z,192.32
2018-01-12T09:57:07.656Z,198.00
2018-01-12T09:58:10.119Z,201.73
2018-01-12T09:59:12.600Z,200.10
2018-01-12T10:00:23.878Z,203.45
2018-01-12T10:01:26.352Z,201.43
2018-01-12T10:02:28.817Z,203.37
2018-01-12T10:03:31.314Z,207.60
2018-01-12T10:04:33.783Z,203.48
2018-01-12T10:05:36.329Z,194.57
2018-01-12T10:06:38.812Z,196.43
2018-01-12T10:07:50.058Z,185.40
2018-01-12T10:08:59.356Z,169.50
2018-01-12T10:10:11.752Z,188.35
2018-01-12T10:11:14.213Z,184.27
2018-01-12T10:12:16.691Z,208.27
2018-01-12T10:13:19.176Z,195.07
2018-01-12T10:14:21.694Z,203.30
2018-01-12T10:15:24.181Z,227.38
2018-01-12T10:16:26.659Z,209.05
2018-01-12T10:17:29.126Z,225.40
2018-01-12T10:18:35.599Z,231.02
2018-01-12T10:19:43.834Z,231.55
2018-01-12T10:20:46.335Z,203.07
2018-01-12T10:21:48.827Z,188.10
2018-01-12T10:22:51.304Z,156.80
2018-01-12T10:23:53.830Z,175.45
2018-01-12T10:24:56.315Z,168.20
2018-01-12T10:25:58.791Z,171.20
2018-01-12T10:27:01.267Z,163.48
2018-01-12T10:28:03.748Z,182.93
2018-01-12T10:29:06.979Z,212.00
2018-01-12T10:30:21.396Z,182.27
2018-01-12T10:31:35.703Z,219.87
2018-01-12T10:32:44.169Z,211.95
2018-01-12T10:33:58.608Z,215.43
2018-01-12T10:35:12.971Z,209.15
2018-01-12T10:36:21.228Z,216.77
2018-01-12T10:37:23.730Z,194.60
2018-01-12T10:38:26.185Z,217.52
2018-01-12T10:39:28.664Z,194.07
2018-01-12T10:40:41.847Z,187.77
2018-01-12T10:41:56.061Z,199.95
2018-01-12T10:42:58.578Z,165.75
2018-01-12T10:44:01.056Z,192.48
2018-01-12T10:45:03.521Z,198.85
2018-01-12T10:46:17.720Z,195.57
2018-01-12T10:47:26.200Z,200.93
2018-01-12T10:51:38.672Z,211.68
2018-01-12T10:52:50.049Z,189.18
2018-01-12T10:53:52.554Z,195.98
2018-01-12T10:54:55.018Z,175.57
2018-01-12T10:55:57.477Z,195.45
2018-01-12T10:56:59.937Z,191.50
2018-01-12T10:58:02.416Z,183.07
2018-01-12T10:59:04.879Z,165.68
2018-01-12T11:00:07.355Z,182.25
2018-01-12T11:01:09.815Z,193.95
2018-01-12T11:02:12.295Z,185.50
2018-01-12T11:03:14.771Z,199.77
2018-01-12T11:04:17.247Z,197.82
2018-01-12T11:05:19.710Z,196.20
2018-01-12T11:06:22.169Z,209.10
2018-01-12T11:07:24.646Z,224.02
2018-01-12T11:08:27.213Z,205.50
2018-01-12T11:09:29.674Z,197.57
2018-01-12T11:10:32.151Z,182.80
2018-01-12T11:11:34.617Z,175.87
2018-01-12T11:12:37.082Z,188.05
2018-01-12T11:13:39.568Z,183.80
2018-01-12T11:14:42.044Z,188.25
2018-01-12T11:15:44.525Z,200.68
2018-01-12T11:16:46.997Z,174.77
2018-01-12T11:17:49.566Z,187.37
2018-01-12T11:18:52.030Z,160.93
2018-01-12T11:19:54.579Z,170.70
2018-01-12T11:20:57.044Z,163.82
2018-01-12T11:21:59.595Z,163.30
2018-01-12T11:23:02.072Z,169.85
2018-01-12T11:24:04.533Z,165.52
2018-01-12T11:25:06.989Z,158.18
2018-01-12T11:26:09.450Z,176.65
2018-01-12T11:27:11.913Z,158.15
2018-01-12T11:28:14.382Z,175.20
2018-01-12T11:29:16.861Z,169.85
2018-01-12T11:30:19.365Z,165.02
2018-01-12T11:31:21.859Z,168.37
2018-01-12T11:32:24.348Z,151.50
2018-01-12T11:33:26.820Z,164.23
2018-01-12T11:34:29.303Z,160.37
2018-01-12T11:35:31.811Z,166.55
2018-01-12T11:36:34.296Z,168.40
2018-01-12T11:37:36.796Z,159.50
2018-01-12T11:38:39.266Z,164.62
2018-01-12T11:39:41.729Z,166.00
2018-01-12T11:40:44.193Z,159.12
2018-01-12T11:41:46.672Z,172.15
2018-01-12T11:42:49.163Z,179.70
2018-01-12T11:43:51.725Z,185.40
2018-01-12T11:44:54.287Z,173.85
2018-01-12T11:45:56.751Z,164.30
2018-01-12T11:46:59.228Z,146.27
2018-01-12T11:48:01.807Z,151.52
2018-01-12T11:49:04.358Z,152.00
2018-01-12T11:50:06.833Z,149.35
2018-01-12T11:51:09.318Z,153.57
2018-01-12T11:52:11.778Z,156.50
2018-01-12T11:53:14.299Z,149.93
2018-01-12T11:54:16.770Z,134.35
2018-01-12T11:55:19.249Z,163.50
2018-01-12T11:56:21.735Z,159.20
2018-01-12T11:57:24.216Z,158.55
2018-01-12T11:58:26.687Z,161.43
2018-01-12T11:59:29.155Z,168.73
2018-01-12T12:00:31.618Z,157.37
2018-01-12T12:01:34.085Z,160.48
2018-01-12T12:02:36.560Z,151.32
2018-01-12T12:03:39.033Z,163.75
2018-01-12T12:04:41.494Z,158.75
2018-01-12T12:05:43.958Z,149.80
2018-01-12T12:06:46.499Z,165.70
2018-01-12T12:07:49.017Z,151.15
2018-01-12T12:08:51.496Z,145.82
2018-01-12T12:09:53.958Z,145.23
2018-01-12T12:10:56.436Z,159.10
2018-01-12T12:11:58.902Z,160.23
2018-01-12T12:13:01.362Z,162.55
2018-01-12T12:14:03.843Z,153.35
2018-01-12T12:15:06.311Z,147.25
2018-01-12T12:16:08.777Z,169.62
2018-01-12T12:17:11.383Z,156.23
2018-01-12T12:18:13.845Z,150.00
2018-01-12T12:19:16.320Z,151.12
2018-01-12T12:20:18.814Z,156.30
2018-01-12T12:21:21.286Z,145.02
2018-01-12T12:22:23.746Z,153.38
2018-01-12T12:23:26.213Z,147.73
2018-01-12T12:24:28.690Z,150.02
2018-01-12T12:25:31.169Z,161.98
2018-01-12T12:26:33.632Z,158.70
2018-01-12T12:27:36.089Z,152.65
2018-01-12T12:28:38.554Z,181.95
2018-01-12T12:29:41.029Z,149.35
2018-01-12T12:30:43.493Z,136.12
2018-01-12T12:31:45.972Z,135.12
2018-01-12T12:32:48.438Z,158.35
2018-01-12T12:33:50.917Z,125.75
2018-01-12T12:34:53.392Z,150.82
2018-01-12T12:35:55.853Z,130.20
2018-01-12T12:36:58.321Z,131.73
2018-01-12T12:38:00.828Z,136.77
2018-01-12T12:39:03.324Z,135.40
2018-01-12T12:40:05.803Z,137.00
2018-01-12T12:41:08.262Z,124.87
2018-01-12T12:42:10.726Z,130.55
2018-01-12T12:43:13.208Z,132.75
2018-01-12T12:44:15.665Z,130.20
2018-01-12T12:45:18.143Z,156.63
2018-01-12T12:46:20.616Z,139.90
2018-01-12T12:47:23.086Z,146.07
2018-01-12T12:48:25.563Z,132.77
2018-01-12T12:49:28.029Z,162.20
2018-01-12T12:50:30.490Z,183.25
2018-01-12T12:51:32.953Z,139.20
2018-01-12T12:52:35.428Z,149.80
2018-01-12T12:53:37.889Z,133.93
2018-01-12T12:54:40.378Z,141.70
2018-01-12T12:55:42.853Z,141.52
2018-01-12T12:56:45.327Z,123.95
2018-01-12T12:57:47.833Z,142.77
2018-01-12T12:58:50.315Z,132.20
2018-01-12T12:59:52.792Z,131.37
2018-01-12T13:00:55.258Z,134.98
2018-01-12T13:01:57.742Z,146.77
2018-01-12T13:03:00.213Z,133.93
2018-01-12T13:04:02.704Z,160.60
2018-01-12T13:05:05.170Z,144.65
2018-01-12T13:06:07.629Z,145.87
2018-01-12T13:07:10.153Z,154.23
2018-01-12T13:08:12.604Z,144.45
2018-01-12T13:09:15.095Z,140.50
2018-01-12T13:10:17.588Z,138.82
2018-01-12T13:11:20.059Z,133.80
2018-01-12T13:12:22.544Z,137.82
2018-01-12T13:13:25.015Z,135.30
2018-01-12T13:14:27.492Z,140.43
2018-01-12T13:15:29.980Z,137.68